sensor_id;sensor_type;location;lat;lon;timestamp;temperature;humidity
34877;DHT22;21086;44.780;17.194;2023-11-19T00:02:41;4.40;99.90
34877;DHT22;21086;44.780;17.194;2023-11-19T00:05:28;4.40;99.90
34877;DHT22;21086;44.780;17.194;2023-11-19T00:08:16;4.40;99.90
34877;DHT22;21086;44.780;17.194;2023-11-19T00:11:04;4.30;99.90
34877;DHT22;21086;44.780;17.194;2023-11-19T00:13:51;4.20;99.90
34877;DHT22;21086;44.780;17.194;2023-11-19T00:16:39;4.20;99.90
34877;DHT22;21086;44.780;17.194;2023-11-19T00:19:26;4.20;99.90
34877;DHT22;21086;44.780;17.194;2023-11-19T00:22:13;4.10;99.90
34877;DHT22;21086;44.780;17.194;2023-11-19T00:25:01;4.00;99.90
34877;DHT22;21086;44.780;17.194;2023-11-19T00:27:48;3.90;99.90
34877;DHT22;21086;44.780;17.194;2023-11-19T00:30:35;3.90;99.90
34877;DHT22;21086;44.780;17.194;2023-11-19T00:33:23;3.80;99.90
34877;DHT22;21086;44.780;17.194;2023-11-19T00:36:10;3.80;99.90
34877;DHT22;21086;44.780;17.194;2023-11-19T00:38:58;3.80;99.90
34877;DHT22;21086;44.780;17.194;2023-11-19T00:41:45;3.80;99.90
34877;DHT22;21086;44.780;17.194;2023-11-19T00:44:33;3.80;99.90
34877;DHT22;21086;44.780;17.194;2023-11-19T00:47:20;3.90;99.90
34877;DHT22;21086;44.780;17.194;2023-11-19T00:50:08;3.90;99.90
34877;DHT22;21086;44.780;17.194;2023-11-19T00:53:00;3.90;99.90
34877;DHT22;21086;44.780;17.194;2023-11-19T00:55:47;4.00;99.90
34877;DHT22;21086;44.780;17.194;2023-11-19T00:58:34;4.10;99.90
34877;DHT22;21086;44.780;17.194;2023-11-19T01:01:22;4.20;99.90
34877;DHT22;21086;44.780;17.194;2023-11-19T01:04:11;4.20;99.90
34877;DHT22;21086;44.780;17.194;2023-11-19T01:06:59;4.30;99.90
34877;DHT22;21086;44.780;17.194;2023-11-19T01:09:46;4.40;99.90
34877;DHT22;21086;44.780;17.194;2023-11-19T01:12:33;4.50;99.90
34877;DHT22;21086;44.780;17.194;2023-11-19T01:15:21;4.70;99.90
34877;DHT22;21086;44.780;17.194;2023-11-19T01:18:08;4.80;99.90
34877;DHT22;21086;44.780;17.194;2023-11-19T01:20:56;4.90;99.90
34877;DHT22;21086;44.780;17.194;2023-11-19T01:23:43;5.10;99.90
34877;DHT22;21086;44.780;17.194;2023-11-19T01:26:31;5.20;99.90
34877;DHT22;21086;44.780;17.194;2023-11-19T01:29:18;5.20;99.90
34877;DHT22;21086;44.780;17.194;2023-11-19T01:32:07;5.20;99.90
34877;DHT22;21086;44.780;17.194;2023-11-19T01:34:54;5.20;99.90
34877;DHT22;21086;44.780;17.194;2023-11-19T01:37:41;5.20;99.90
34877;DHT22;21086;44.780;17.194;2023-11-19T01:40:29;5.20;99.90
34877;DHT22;21086;44.780;17.194;2023-11-19T01:43:35;5.20;99.90
34877;DHT22;21086;44.780;17.194;2023-11-19T01:46:23;5.20;99.90
34877;DHT22;21086;44.780;17.194;2023-11-19T01:49:10;5.10;99.90
34877;DHT22;21086;44.780;17.194;2023-11-19T01:51:59;5.00;99.90
34877;DHT22;21086;44.780;17.194;2023-11-19T01:54:46;4.90;99.90
34877;DHT22;21086;44.780;17.194;2023-11-19T01:57:35;4.90;99.90
34877;DHT22;21086;44.780;17.194;2023-11-19T02:00:25;4.80;99.90
34877;DHT22;21086;44.780;17.194;2023-11-19T02:03:12;4.60;99.90
34877;DHT22;21086;44.780;17.194;2023-11-19T02:06:01;4.50;99.90
34877;DHT22;21086;44.780;17.194;2023-11-19T02:08:49;4.50;99.90
34877;DHT22;21086;44.780;17.194;2023-11-19T02:11:40;4.40;99.90
34877;DHT22;21086;44.780;17.194;2023-11-19T02:14:27;4.50;99.90
34877;DHT22;21086;44.780;17.194;2023-11-19T02:17:31;4.40;99.90
34877;DHT22;21086;44.780;17.194;2023-11-19T02:20:19;4.30;99.90
34877;DHT22;21086;44.780;17.194;2023-11-19T02:23:07;4.30;99.90
34877;DHT22;21086;44.780;17.194;2023-11-19T02:26:12;4.40;99.90
34877;DHT22;21086;44.780;17.194;2023-11-19T02:29:01;4.30;99.90
34877;DHT22;21086;44.780;17.194;2023-11-19T02:31:53;4.30;99.90
34877;DHT22;21086;44.780;17.194;2023-11-19T02:34:42;4.30;99.90
34877;DHT22;21086;44.780;17.194;2023-11-19T02:37:29;4.30;99.90
34877;DHT22;21086;44.780;17.194;2023-11-19T02:40:16;4.30;99.90
34877;DHT22;21086;44.780;17.194;2023-11-19T02:43:04;4.20;99.90
34877;DHT22;21086;44.780;17.194;2023-11-19T02:45:52;4.20;99.90
34877;DHT22;21086;44.780;17.194;2023-11-19T02:48:43;4.30;99.90
34877;DHT22;21086;44.780;17.194;2023-11-19T02:51:32;4.30;99.90
34877;DHT22;21086;44.780;17.194;2023-11-19T02:54:19;4.30;99.90
34877;DHT22;21086;44.780;17.194;2023-11-19T02:57:08;4.30;99.90
34877;DHT22;21086;44.780;17.194;2023-11-19T03:00:08;4.30;99.90
34877;DHT22;21086;44.780;17.194;2023-11-19T03:02:59;4.40;99.90
34877;DHT22;21086;44.780;17.194;2023-11-19T03:05:47;4.30;99.90
34877;DHT22;21086;44.780;17.194;2023-11-19T03:08:35;4.20;99.90
34877;DHT22;21086;44.780;17.194;2023-11-19T03:11:23;4.20;99.90
34877;DHT22;21086;44.780;17.194;2023-11-19T03:14:11;4.10;99.90
34877;DHT22;21086;44.780;17.194;2023-11-19T03:16:59;4.10;99.90
34877;DHT22;21086;44.780;17.194;2023-11-19T03:19:46;4.10;99.90
34877;DHT22;21086;44.780;17.194;2023-11-19T03:22:37;4.10;99.90
34877;DHT22;21086;44.780;17.194;2023-11-19T03:25:25;4.10;99.90
34877;DHT22;21086;44.780;17.194;2023-11-19T03:28:14;4.00;99.90
34877;DHT22;21086;44.780;17.194;2023-11-19T03:31:04;4.00;99.90
34877;DHT22;21086;44.780;17.194;2023-11-19T03:33:52;3.90;99.90
34877;DHT22;21086;44.780;17.194;2023-11-19T03:36:40;4.00;99.90
34877;DHT22;21086;44.780;17.194;2023-11-19T03:39:28;3.90;99.90
34877;DHT22;21086;44.780;17.194;2023-11-19T03:42:16;3.90;99.90
34877;DHT22;21086;44.780;17.194;2023-11-19T03:45:04;3.90;99.90
34877;DHT22;21086;44.780;17.194;2023-11-19T03:47:51;3.90;99.90
34877;DHT22;21086;44.780;17.194;2023-11-19T03:50:38;3.90;99.90
34877;DHT22;21086;44.780;17.194;2023-11-19T03:53:26;4.00;99.90
34877;DHT22;21086;44.780;17.194;2023-11-19T03:56:13;4.10;99.90
34877;DHT22;21086;44.780;17.194;2023-11-19T03:59:01;4.00;99.90
34877;DHT22;21086;44.780;17.194;2023-11-19T04:01:48;3.90;99.90
34877;DHT22;21086;44.780;17.194;2023-11-19T04:04:36;3.80;99.90
34877;DHT22;21086;44.780;17.194;2023-11-19T04:07:24;3.90;99.90
34877;DHT22;21086;44.780;17.194;2023-11-19T04:10:12;3.90;99.90
34877;DHT22;21086;44.780;17.194;2023-11-19T04:12:59;3.90;99.90
34877;DHT22;21086;44.780;17.194;2023-11-19T04:15:46;3.90;99.90
34877;DHT22;21086;44.780;17.194;2023-11-19T04:18:33;3.80;99.90
34877;DHT22;21086;44.780;17.194;2023-11-19T04:21:21;3.80;99.90
34877;DHT22;21086;44.780;17.194;2023-11-19T04:24:10;3.80;99.90
34877;DHT22;21086;44.780;17.194;2023-11-19T04:27:01;3.80;99.90
34877;DHT22;21086;44.780;17.194;2023-11-19T04:29:48;3.90;99.90
34877;DHT22;21086;44.780;17.194;2023-11-19T04:32:37;3.90;99.90
34877;DHT22;21086;44.780;17.194;2023-11-19T04:35:25;3.80;99.90
34877;DHT22;21086;44.780;17.194;2023-11-19T04:38:13;3.80;99.90
34877;DHT22;21086;44.780;17.194;2023-11-19T04:41:00;3.80;99.90
34877;DHT22;21086;44.780;17.194;2023-11-19T04:43:47;3.80;99.90
34877;DHT22;21086;44.780;17.194;2023-11-19T04:46:35;3.80;99.90
34877;DHT22;21086;44.780;17.194;2023-11-19T04:49:22;3.80;99.90
34877;DHT22;21086;44.780;17.194;2023-11-19T04:52:09;3.80;99.90
34877;DHT22;21086;44.780;17.194;2023-11-19T04:54:59;3.70;99.90
34877;DHT22;21086;44.780;17.194;2023-11-19T04:57:47;3.60;99.90
34877;DHT22;21086;44.780;17.194;2023-11-19T05:00:34;3.50;99.90
34877;DHT22;21086;44.780;17.194;2023-11-19T05:03:22;3.50;99.90
34877;DHT22;21086;44.780;17.194;2023-11-19T05:06:10;3.50;99.90
34877;DHT22;21086;44.780;17.194;2023-11-19T05:08:59;3.40;99.90
34877;DHT22;21086;44.780;17.194;2023-11-19T05:11:55;3.50;99.90
34877;DHT22;21086;44.780;17.194;2023-11-19T05:14:42;3.50;99.90
34877;DHT22;21086;44.780;17.194;2023-11-19T05:17:36;3.60;99.90
34877;DHT22;21086;44.780;17.194;2023-11-19T05:20:24;3.60;99.90
34877;DHT22;21086;44.780;17.194;2023-11-19T05:23:11;3.70;99.90
34877;DHT22;21086;44.780;17.194;2023-11-19T05:26:02;3.70;99.90
34877;DHT22;21086;44.780;17.194;2023-11-19T05:28:53;3.70;99.90
34877;DHT22;21086;44.780;17.194;2023-11-19T05:31:41;3.70;99.90
34877;DHT22;21086;44.780;17.194;2023-11-19T05:34:30;3.60;99.90
34877;DHT22;21086;44.780;17.194;2023-11-19T05:37:18;3.60;99.90
34877;DHT22;21086;44.780;17.194;2023-11-19T05:40:06;3.60;99.90
34877;DHT22;21086;44.780;17.194;2023-11-19T05:42:59;3.60;99.90
34877;DHT22;21086;44.780;17.194;2023-11-19T05:45:47;3.60;99.90
34877;DHT22;21086;44.780;17.194;2023-11-19T05:48:34;3.50;99.90
34877;DHT22;21086;44.780;17.194;2023-11-19T05:51:21;3.60;99.90
34877;DHT22;21086;44.780;17.194;2023-11-19T05:54:11;3.60;99.90
34877;DHT22;21086;44.780;17.194;2023-11-19T05:56:58;3.50;99.90
34877;DHT22;21086;44.780;17.194;2023-11-19T05:59:45;3.50;99.90
34877;DHT22;21086;44.780;17.194;2023-11-19T06:02:34;3.50;99.90
34877;DHT22;21086;44.780;17.194;2023-11-19T06:05:21;3.60;99.90
34877;DHT22;21086;44.780;17.194;2023-11-19T06:08:08;3.60;99.90
34877;DHT22;21086;44.780;17.194;2023-11-19T06:10:55;3.70;99.90
34877;DHT22;21086;44.780;17.194;2023-11-19T06:13:43;3.70;99.90
34877;DHT22;21086;44.780;17.194;2023-11-19T06:16:31;3.70;99.90
34877;DHT22;21086;44.780;17.194;2023-11-19T06:19:18;3.70;99.90
34877;DHT22;21086;44.780;17.194;2023-11-19T06:22:06;3.80;99.90
34877;DHT22;21086;44.780;17.194;2023-11-19T06:24:53;3.80;99.90
34877;DHT22;21086;44.780;17.194;2023-11-19T06:27:41;3.90;99.90
34877;DHT22;21086;44.780;17.194;2023-11-19T06:30:29;4.00;99.90
34877;DHT22;21086;44.780;17.194;2023-11-19T06:33:18;4.10;99.90
34877;DHT22;21086;44.780;17.194;2023-11-19T06:36:06;4.20;99.90
34877;DHT22;21086;44.780;17.194;2023-11-19T06:38:54;4.30;99.90
34877;DHT22;21086;44.780;17.194;2023-11-19T06:41:46;4.30;99.90
34877;DHT22;21086;44.780;17.194;2023-11-19T06:44:33;4.30;99.90
34877;DHT22;21086;44.780;17.194;2023-11-19T06:47:21;4.40;99.90
34877;DHT22;21086;44.780;17.194;2023-11-19T06:50:09;4.60;99.90
34877;DHT22;21086;44.780;17.194;2023-11-19T06:52:56;4.70;99.90
34877;DHT22;21086;44.780;17.194;2023-11-19T06:55:43;4.90;99.90
34877;DHT22;21086;44.780;17.194;2023-11-19T06:58:31;5.00;99.90
34877;DHT22;21086;44.780;17.194;2023-11-19T07:01:18;5.10;99.90
34877;DHT22;21086;44.780;17.194;2023-11-19T07:04:06;5.20;99.90
34877;DHT22;21086;44.780;17.194;2023-11-19T07:06:57;5.20;99.90
34877;DHT22;21086;44.780;17.194;2023-11-19T07:09:44;5.40;99.90
34877;DHT22;21086;44.780;17.194;2023-11-19T07:12:31;5.40;99.90
34877;DHT22;21086;44.780;17.194;2023-11-19T07:15:18;5.50;99.90
34877;DHT22;21086;44.780;17.194;2023-11-19T07:18:06;5.60;99.90
34877;DHT22;21086;44.780;17.194;2023-11-19T07:20:53;5.80;99.90
34877;DHT22;21086;44.780;17.194;2023-11-19T07:23:41;6.00;99.90
34877;DHT22;21086;44.780;17.194;2023-11-19T07:26:28;6.10;99.90
34877;DHT22;21086;44.780;17.194;2023-11-19T07:29:16;6.20;99.90
34877;DHT22;21086;44.780;17.194;2023-11-19T07:32:09;6.20;99.90
34877;DHT22;21086;44.780;17.194;2023-11-19T07:34:56;6.40;99.90
34877;DHT22;21086;44.780;17.194;2023-11-19T07:37:43;6.50;99.90
34877;DHT22;21086;44.780;17.194;2023-11-19T07:40:31;6.60;99.90
34877;DHT22;21086;44.780;17.194;2023-11-19T07:43:18;6.70;99.90
34877;DHT22;21086;44.780;17.194;2023-11-19T07:46:09;6.80;99.90
34877;DHT22;21086;44.780;17.194;2023-11-19T07:48:57;6.80;99.90
34877;DHT22;21086;44.780;17.194;2023-11-19T07:51:44;7.00;99.90
34877;DHT22;21086;44.780;17.194;2023-11-19T07:54:32;7.10;99.90
34877;DHT22;21086;44.780;17.194;2023-11-19T07:57:22;7.30;99.90
34877;DHT22;21086;44.780;17.194;2023-11-19T08:00:11;7.50;99.90
34877;DHT22;21086;44.780;17.194;2023-11-19T08:02:59;7.60;99.90
34877;DHT22;21086;44.780;17.194;2023-11-19T08:05:47;8.00;99.90
34877;DHT22;21086;44.780;17.194;2023-11-19T08:08:34;8.20;99.90
34877;DHT22;21086;44.780;17.194;2023-11-19T08:11:22;8.60;99.90
34877;DHT22;21086;44.780;17.194;2023-11-19T08:14:09;9.00;99.90
34877;DHT22;21086;44.780;17.194;2023-11-19T08:16:57;9.30;99.90
34877;DHT22;21086;44.780;17.194;2023-11-19T08:19:44;9.60;99.90
34877;DHT22;21086;44.780;17.194;2023-11-19T08:22:31;9.90;99.90
34877;DHT22;21086;44.780;17.194;2023-11-19T08:25:21;10.30;99.90
34877;DHT22;21086;44.780;17.194;2023-11-19T08:28:09;10.60;99.90
34877;DHT22;21086;44.780;17.194;2023-11-19T08:30:56;10.90;99.90
34877;DHT22;21086;44.780;17.194;2023-11-19T08:33:43;11.20;99.90
34877;DHT22;21086;44.780;17.194;2023-11-19T08:36:30;11.40;99.90
34877;DHT22;21086;44.780;17.194;2023-11-19T08:39:19;11.60;99.90
34877;DHT22;21086;44.780;17.194;2023-11-19T08:42:08;11.70;99.90
34877;DHT22;21086;44.780;17.194;2023-11-19T08:44:55;11.70;99.90
34877;DHT22;21086;44.780;17.194;2023-11-19T08:47:42;11.80;99.90
34877;DHT22;21086;44.780;17.194;2023-11-19T08:50:30;11.90;99.90
34877;DHT22;21086;44.780;17.194;2023-11-19T08:53:17;12.10;99.90
34877;DHT22;21086;44.780;17.194;2023-11-19T08:56:05;12.30;99.90
34877;DHT22;21086;44.780;17.194;2023-11-19T08:58:52;12.60;99.90
34877;DHT22;21086;44.780;17.194;2023-11-19T09:01:39;13.10;99.90
34877;DHT22;21086;44.780;17.194;2023-11-19T09:04:28;13.50;99.90
34877;DHT22;21086;44.780;17.194;2023-11-19T09:07:15;13.90;99.90
34877;DHT22;21086;44.780;17.194;2023-11-19T09:10:03;14.20;99.90
34877;DHT22;21086;44.780;17.194;2023-11-19T09:12:52;14.50;99.90
34877;DHT22;21086;44.780;17.194;2023-11-19T09:15:43;14.60;99.90
34877;DHT22;21086;44.780;17.194;2023-11-19T09:18:30;14.60;99.90
34877;DHT22;21086;44.780;17.194;2023-11-19T09:21:19;14.40;99.90
34877;DHT22;21086;44.780;17.194;2023-11-19T09:24:07;14.30;99.90
34877;DHT22;21086;44.780;17.194;2023-11-19T09:26:54;14.10;99.90
34877;DHT22;21086;44.780;17.194;2023-11-19T09:29:43;14.00;99.90
34877;DHT22;21086;44.780;17.194;2023-11-19T09:32:33;13.90;99.90
34877;DHT22;21086;44.780;17.194;2023-11-19T09:35:20;14.00;99.90
34877;DHT22;21086;44.780;17.194;2023-11-19T09:38:08;14.10;99.90
34877;DHT22;21086;44.780;17.194;2023-11-19T09:40:55;14.10;99.90
34877;DHT22;21086;44.780;17.194;2023-11-19T09:43:46;14.10;99.90
34877;DHT22;21086;44.780;17.194;2023-11-19T09:46:34;14.40;99.90
34877;DHT22;21086;44.780;17.194;2023-11-19T09:49:22;14.90;99.90
34877;DHT22;21086;44.780;17.194;2023-11-19T09:52:16;15.40;99.90
34877;DHT22;21086;44.780;17.194;2023-11-19T09:55:04;15.80;99.90
34877;DHT22;21086;44.780;17.194;2023-11-19T09:57:52;16.30;99.90
34877;DHT22;21086;44.780;17.194;2023-11-19T10:00:40;17.00;99.90
34877;DHT22;21086;44.780;17.194;2023-11-19T10:03:33;17.60;99.90
34877;DHT22;21086;44.780;17.194;2023-11-19T10:06:23;18.10;99.90
34877;DHT22;21086;44.780;17.194;2023-11-19T10:09:12;18.80;99.90
34877;DHT22;21086;44.780;17.194;2023-11-19T10:12:02;19.40;99.90
34877;DHT22;21086;44.780;17.194;2023-11-19T10:14:51;20.00;99.90
34877;DHT22;21086;44.780;17.194;2023-11-19T10:17:41;20.20;99.90
34877;DHT22;21086;44.780;17.194;2023-11-19T10:20:29;20.10;99.90
34877;DHT22;21086;44.780;17.194;2023-11-19T10:23:16;19.90;99.90
34877;DHT22;21086;44.780;17.194;2023-11-19T10:26:04;19.80;99.90
34877;DHT22;21086;44.780;17.194;2023-11-19T10:28:55;19.50;99.90
34877;DHT22;21086;44.780;17.194;2023-11-19T10:31:56;19.20;99.90
34877;DHT22;21086;44.780;17.194;2023-11-19T10:35:05;18.90;99.90
34877;DHT22;21086;44.780;17.194;2023-11-19T10:37:53;18.60;99.90
34877;DHT22;21086;44.780;17.194;2023-11-19T10:40:41;18.20;99.90
34877;DHT22;21086;44.780;17.194;2023-11-19T10:43:28;17.90;99.90
34877;DHT22;21086;44.780;17.194;2023-11-19T10:46:16;17.80;99.90
34877;DHT22;21086;44.780;17.194;2023-11-19T10:49:08;18.00;99.90
34877;DHT22;21086;44.780;17.194;2023-11-19T12:33:55;21.80;99.90
34877;DHT22;21086;44.780;17.194;2023-11-19T12:44:56;22.30;99.90
34877;DHT22;21086;44.780;17.194;2023-11-19T12:47:23;22.50;99.90
34877;DHT22;21086;44.780;17.194;2023-11-19T12:52:14;18.40;99.90
34877;DHT22;21086;44.780;17.194;2023-11-19T12:54:41;21.80;99.90
34877;DHT22;21086;44.780;17.194;2023-11-19T12:57:08;21.60;99.90
34877;DHT22;21086;44.780;17.194;2023-11-19T12:59:35;21.10;99.90
34877;DHT22;21086;44.780;17.194;2023-11-19T13:02:02;20.50;99.90
34877;DHT22;21086;44.780;17.194;2023-11-19T13:04:33;19.80;99.90
34877;DHT22;21086;44.780;17.194;2023-11-19T13:07:00;19.20;99.90
34877;DHT22;21086;44.780;17.194;2023-11-19T13:09:30;18.40;99.90
34877;DHT22;21086;44.780;17.194;2023-11-19T13:11:57;18.00;99.90
34877;DHT22;21086;44.780;17.194;2023-11-19T13:14:36;17.90;99.90
34877;DHT22;21086;44.780;17.194;2023-11-19T13:17:05;17.60;99.90
34877;DHT22;21086;44.780;17.194;2023-11-19T13:19:32;17.20;99.90
34877;DHT22;21086;44.780;17.194;2023-11-19T13:21:59;16.80;99.90
34877;DHT22;21086;44.780;17.194;2023-11-19T13:24:26;16.80;99.90
34877;DHT22;21086;44.780;17.194;2023-11-19T13:26:53;16.80;99.90
34877;DHT22;21086;44.780;17.194;2023-11-19T13:29:20;16.90;99.90
34877;DHT22;21086;44.780;17.194;2023-11-19T13:31:47;17.00;99.90
34877;DHT22;21086;44.780;17.194;2023-11-19T13:34:14;17.10;99.90
34877;DHT22;21086;44.780;17.194;2023-11-19T13:36:41;17.40;99.90
34877;DHT22;21086;44.780;17.194;2023-11-19T13:39:08;17.90;99.90
34877;DHT22;21086;44.780;17.194;2023-11-19T13:41:36;21.50;99.90
34877;DHT22;21086;44.780;17.194;2023-11-19T13:44:03;19.10;99.90
34877;DHT22;21086;44.780;17.194;2023-11-19T13:46:30;20.00;99.90
34877;DHT22;21086;44.780;17.194;2023-11-19T13:48:57;20.30;99.90
34877;DHT22;21086;44.780;17.194;2023-11-19T13:51:24;20.20;99.90
34877;DHT22;21086;44.780;17.194;2023-11-19T13:53:52;19.60;99.90
34877;DHT22;21086;44.780;17.194;2023-11-19T13:56:19;19.20;99.90
34877;DHT22;21086;44.780;17.194;2023-11-19T13:58:46;19.90;99.90
34877;DHT22;21086;44.780;17.194;2023-11-19T14:01:13;21.00;99.90
34877;DHT22;21086;44.780;17.194;2023-11-19T14:03:40;21.80;99.90
34877;DHT22;21086;44.780;17.194;2023-11-19T14:06:09;23.00;99.90
34877;DHT22;21086;44.780;17.194;2023-11-19T14:08:36;23.80;99.90
34877;DHT22;21086;44.780;17.194;2023-11-19T14:11:03;24.70;99.90
34877;DHT22;21086;44.780;17.194;2023-11-19T14:13:30;25.30;99.90
34877;DHT22;21086;44.780;17.194;2023-11-19T14:15:57;25.60;99.90
34877;DHT22;21086;44.780;17.194;2023-11-19T14:18:25;25.70;99.90
34877;DHT22;21086;44.780;17.194;2023-11-19T14:20:51;25.50;99.90
34877;DHT22;21086;44.780;17.194;2023-11-19T14:23:19;25.60;99.90
34877;DHT22;21086;44.780;17.194;2023-11-19T14:25:46;25.70;99.90
34877;DHT22;21086;44.780;17.194;2023-11-19T14:28:12;26.10;99.90
34877;DHT22;21086;44.780;17.194;2023-11-19T14:30:40;25.80;99.90
34877;DHT22;21086;44.780;17.194;2023-11-19T14:33:08;25.40;99.90
34877;DHT22;21086;44.780;17.194;2023-11-19T14:35:36;25.30;99.90
34877;DHT22;21086;44.780;17.194;2023-11-19T14:38:23;25.10;99.90
34877;DHT22;21086;44.780;17.194;2023-11-19T14:40:51;24.50;99.90
34877;DHT22;21086;44.780;17.194;2023-11-19T14:43:18;23.90;99.90
34877;DHT22;21086;44.780;17.194;2023-11-19T14:45:45;23.40;99.90
34877;DHT22;21086;44.780;17.194;2023-11-19T14:48:16;22.80;99.90
34877;DHT22;21086;44.780;17.194;2023-11-19T14:50:46;21.80;99.90
34877;DHT22;21086;44.780;17.194;2023-11-19T14:53:13;21.20;99.90
34877;DHT22;21086;44.780;17.194;2023-11-19T14:55:41;20.80;99.90
34877;DHT22;21086;44.780;17.194;2023-11-19T14:58:08;20.30;99.90
34877;DHT22;21086;44.780;17.194;2023-11-19T15:00:39;19.60;99.90
34877;DHT22;21086;44.780;17.194;2023-11-19T15:03:06;18.60;99.90
34877;DHT22;21086;44.780;17.194;2023-11-19T15:05:33;17.80;99.90
34877;DHT22;21086;44.780;17.194;2023-11-19T15:08:01;17.10;99.90
34877;DHT22;21086;44.780;17.194;2023-11-19T15:10:29;16.50;99.90
34877;DHT22;21086;44.780;17.194;2023-11-19T15:12:57;15.90;99.90
34877;DHT22;21086;44.780;17.194;2023-11-19T15:15:25;15.30;99.90
34877;DHT22;21086;44.780;17.194;2023-11-19T15:17:55;14.90;99.90
34877;DHT22;21086;44.780;17.194;2023-11-19T15:20:22;14.50;99.90
34877;DHT22;21086;44.780;17.194;2023-11-19T15:22:50;14.00;99.90
34877;DHT22;21086;44.780;17.194;2023-11-19T15:25:17;13.00;99.90
34877;DHT22;21086;44.780;17.194;2023-11-19T15:27:43;12.40;99.90
34877;DHT22;21086;44.780;17.194;2023-11-19T15:30:17;12.30;99.90
34877;DHT22;21086;44.780;17.194;2023-11-19T15:32:44;12.10;99.90
34877;DHT22;21086;44.780;17.194;2023-11-19T15:35:12;12.20;99.90
34877;DHT22;21086;44.780;17.194;2023-11-19T15:37:40;12.10;99.90
34877;DHT22;21086;44.780;17.194;2023-11-19T15:40:10;12.00;99.90
34877;DHT22;21086;44.780;17.194;2023-11-19T15:42:40;12.00;99.90
34877;DHT22;21086;44.780;17.194;2023-11-19T15:45:08;11.90;99.90
34877;DHT22;21086;44.780;17.194;2023-11-19T15:47:35;11.60;99.90
34877;DHT22;21086;44.780;17.194;2023-11-19T15:50:03;11.60;99.90
34877;DHT22;21086;44.780;17.194;2023-11-19T15:52:30;11.20;99.90
34877;DHT22;21086;44.780;17.194;2023-11-19T15:54:59;11.00;99.90
34877;DHT22;21086;44.780;17.194;2023-11-19T15:57:26;10.90;99.90
34877;DHT22;21086;44.780;17.194;2023-11-19T15:59:53;10.80;99.90
34877;DHT22;21086;44.780;17.194;2023-11-19T16:02:20;10.70;99.90
34877;DHT22;21086;44.780;17.194;2023-11-19T16:04:48;10.60;99.90
34877;DHT22;21086;44.780;17.194;2023-11-19T16:07:15;10.60;99.90
34877;DHT22;21086;44.780;17.194;2023-11-19T16:09:42;10.50;99.90
34877;DHT22;21086;44.780;17.194;2023-11-19T16:12:10;10.40;99.90
34877;DHT22;21086;44.780;17.194;2023-11-19T16:14:37;10.30;99.90
34877;DHT22;21086;44.780;17.194;2023-11-19T16:17:04;10.20;99.90
34877;DHT22;21086;44.780;17.194;2023-11-19T16:19:33;10.10;99.90
34877;DHT22;21086;44.780;17.194;2023-11-19T16:22:01;9.90;99.90
34877;DHT22;21086;44.780;17.194;2023-11-19T16:24:37;9.80;99.90
34877;DHT22;21086;44.780;17.194;2023-11-19T16:27:04;9.80;99.90
34877;DHT22;21086;44.780;17.194;2023-11-19T16:29:31;9.70;99.90
34877;DHT22;21086;44.780;17.194;2023-11-19T16:31:58;9.60;99.90
34877;DHT22;21086;44.780;17.194;2023-11-19T16:34:25;9.50;99.90
34877;DHT22;21086;44.780;17.194;2023-11-19T16:36:52;9.50;99.90
34877;DHT22;21086;44.780;17.194;2023-11-19T16:39:19;9.40;99.90
34877;DHT22;21086;44.780;17.194;2023-11-19T16:41:46;9.40;99.90
34877;DHT22;21086;44.780;17.194;2023-11-19T16:44:13;9.30;99.90
34877;DHT22;21086;44.780;17.194;2023-11-19T16:46:40;9.20;99.90
34877;DHT22;21086;44.780;17.194;2023-11-19T16:49:07;9.20;99.90
34877;DHT22;21086;44.780;17.194;2023-11-19T16:51:34;9.10;99.90
34877;DHT22;21086;44.780;17.194;2023-11-19T16:54:02;9.10;99.90
34877;DHT22;21086;44.780;17.194;2023-11-19T16:56:29;9.00;99.90
34877;DHT22;21086;44.780;17.194;2023-11-19T16:59:00;9.00;99.90
34877;DHT22;21086;44.780;17.194;2023-11-19T17:01:27;9.00;99.90
34877;DHT22;21086;44.780;17.194;2023-11-19T17:03:54;8.90;99.90
34877;DHT22;21086;44.780;17.194;2023-11-19T17:06:22;8.90;99.90
34877;DHT22;21086;44.780;17.194;2023-11-19T17:08:50;8.80;99.90
34877;DHT22;21086;44.780;17.194;2023-11-19T17:11:18;8.80;99.90
34877;DHT22;21086;44.780;17.194;2023-11-19T17:13:45;8.80;99.90
34877;DHT22;21086;44.780;17.194;2023-11-19T17:16:12;8.70;99.90
34877;DHT22;21086;44.780;17.194;2023-11-19T17:18:39;8.70;99.90
34877;DHT22;21086;44.780;17.194;2023-11-19T17:21:06;8.60;99.90
34877;DHT22;21086;44.780;17.194;2023-11-19T17:23:33;8.50;99.90
34877;DHT22;21086;44.780;17.194;2023-11-19T17:26:00;8.50;99.90
34877;DHT22;21086;44.780;17.194;2023-11-19T17:28:28;8.40;99.90
34877;DHT22;21086;44.780;17.194;2023-11-19T17:30:54;8.30;99.90
34877;DHT22;21086;44.780;17.194;2023-11-19T17:33:21;8.30;99.90
34877;DHT22;21086;44.780;17.194;2023-11-19T17:35:49;8.30;99.90
34877;DHT22;21086;44.780;17.194;2023-11-19T17:38:17;8.20;99.90
34877;DHT22;21086;44.780;17.194;2023-11-19T17:40:46;8.10;99.90
34877;DHT22;21086;44.780;17.194;2023-11-19T17:43:14;8.10;99.90
34877;DHT22;21086;44.780;17.194;2023-11-19T17:45:42;8.10;99.90
34877;DHT22;21086;44.780;17.194;2023-11-19T17:48:10;8.10;99.90
34877;DHT22;21086;44.780;17.194;2023-11-19T17:50:37;8.00;99.90
34877;DHT22;21086;44.780;17.194;2023-11-19T17:53:04;8.00;99.90
34877;DHT22;21086;44.780;17.194;2023-11-19T17:55:31;7.90;99.90
34877;DHT22;21086;44.780;17.194;2023-11-19T17:57:58;7.90;99.90
34877;DHT22;21086;44.780;17.194;2023-11-19T18:00:25;7.90;99.90
34877;DHT22;21086;44.780;17.194;2023-11-19T18:02:54;7.90;99.90
34877;DHT22;21086;44.780;17.194;2023-11-19T18:05:22;8.00;99.90
34877;DHT22;21086;44.780;17.194;2023-11-19T18:07:49;7.90;99.90
34877;DHT22;21086;44.780;17.194;2023-11-19T18:10:16;7.80;99.90
34877;DHT22;21086;44.780;17.194;2023-11-19T18:12:44;7.80;99.90
34877;DHT22;21086;44.780;17.194;2023-11-19T18:15:12;7.70;99.90
34877;DHT22;21086;44.780;17.194;2023-11-19T18:17:40;7.60;99.90
34877;DHT22;21086;44.780;17.194;2023-11-19T18:20:12;7.60;99.90
34877;DHT22;21086;44.780;17.194;2023-11-19T18:22:41;7.50;99.90
34877;DHT22;21086;44.780;17.194;2023-11-19T18:25:08;7.50;99.90
34877;DHT22;21086;44.780;17.194;2023-11-19T18:27:39;7.40;99.90
34877;DHT22;21086;44.780;17.194;2023-11-19T18:30:07;7.40;99.90
34877;DHT22;21086;44.780;17.194;2023-11-19T18:32:34;7.40;99.90
34877;DHT22;21086;44.780;17.194;2023-11-19T18:35:03;7.40;99.90
34877;DHT22;21086;44.780;17.194;2023-11-19T18:37:32;7.40;99.90
34877;DHT22;21086;44.780;17.194;2023-11-19T18:40:00;7.30;99.90
34877;DHT22;21086;44.780;17.194;2023-11-19T18:42:27;7.30;99.90